sensor_id;sensor_type;location;lat;lon;timestamp;P1;durP1;ratioP1;P2;durP2;ratioP2
29120;SDS011;16191;49.548;8.658;2023-05-20T00:01:38;6.30;;;1.95;;
29120;SDS011;16191;49.548;8.658;2023-05-20T00:04:05;4.82;;;2.00;;
29120;SDS011;16191;49.548;8.658;2023-05-20T00:06:31;7.10;;;2.50;;
29120;SDS011;16191;49.548;8.658;2023-05-20T00:08:59;4.80;;;2.00;;
29120;SDS011;16191;49.548;8.658;2023-05-20T00:11:25;9.68;;;2.17;;
29120;SDS011;16191;49.548;8.658;2023-05-20T00:13:52;4.85;;;2.08;;
29120;SDS011;16191;49.548;8.658;2023-05-20T00:16:19;5.65;;;2.17;;
29120;SDS011;16191;49.548;8.658;2023-05-20T00:18:45;4.60;;;2.42;;
29120;SDS011;16191;49.548;8.658;2023-05-20T00:21:12;4.03;;;2.15;;
29120;SDS011;16191;49.548;8.658;2023-05-20T00:23:39;6.85;;;2.13;;
29120;SDS011;16191;49.548;8.658;2023-05-20T00:26:06;6.90;;;2.15;;
29120;SDS011;16191;49.548;8.658;2023-05-20T00:28:32;10.63;;;3.10;;
29120;SDS011;16191;49.548;8.658;2023-05-20T00:30:58;5.22;;;2.17;;
29120;SDS011;16191;49.548;8.658;2023-05-20T00:33:25;7.85;;;2.40;;
29120;SDS011;16191;49.548;8.658;2023-05-20T00:35:52;4.25;;;2.60;;
29120;SDS011;16191;49.548;8.658;2023-05-20T00:38:18;4.53;;;2.10;;
29120;SDS011;16191;49.548;8.658;2023-05-20T00:40:44;6.93;;;2.03;;
29120;SDS011;16191;49.548;8.658;2023-05-20T00:43:11;3.08;;;2.17;;
29120;SDS011;16191;49.548;8.658;2023-05-20T00:45:38;2.72;;;1.88;;
29120;SDS011;16191;49.548;8.658;2023-05-20T00:48:05;3.78;;;2.03;;
29120;SDS011;16191;49.548;8.658;2023-05-20T00:50:32;4.07;;;2.10;;
29120;SDS011;16191;49.548;8.658;2023-05-20T00:52:59;7.18;;;2.47;;
29120;SDS011;16191;49.548;8.658;2023-05-20T00:55:26;3.42;;;1.90;;
29120;SDS011;16191;49.548;8.658;2023-05-20T00:57:52;12.00;;;2.40;;
29120;SDS011;16191;49.548;8.658;2023-05-20T01:00:19;4.63;;;2.25;;
29120;SDS011;16191;49.548;8.658;2023-05-20T01:02:47;4.00;;;1.95;;
29120;SDS011;16191;49.548;8.658;2023-05-20T01:05:14;11.48;;;2.53;;
29120;SDS011;16191;49.548;8.658;2023-05-20T01:07:41;4.03;;;1.65;;
29120;SDS011;16191;49.548;8.658;2023-05-20T01:10:08;4.15;;;1.90;;
29120;SDS011;16191;49.548;8.658;2023-05-20T01:12:36;2.95;;;2.15;;
29120;SDS011;16191;49.548;8.658;2023-05-20T01:15:07;9.15;;;2.03;;
29120;SDS011;16191;49.548;8.658;2023-05-20T01:17:56;6.65;;;2.22;;
29120;SDS011;16191;49.548;8.658;2023-05-20T01:20:47;4.20;;;2.13;;
29120;SDS011;16191;49.548;8.658;2023-05-20T01:23:39;4.47;;;1.85;;
29120;SDS011;16191;49.548;8.658;2023-05-20T01:26:27;9.23;;;2.28;;
29120;SDS011;16191;49.548;8.658;2023-05-20T01:29:13;5.68;;;2.28;;
29120;SDS011;16191;49.548;8.658;2023-05-20T01:32:14;4.38;;;2.28;;
29120;SDS011;16191;49.548;8.658;2023-05-20T01:34:48;6.55;;;2.30;;
29120;SDS011;16191;49.548;8.658;2023-05-20T01:37:16;7.45;;;2.30;;
29120;SDS011;16191;49.548;8.658;2023-05-20T01:39:43;12.48;;;2.78;;
29120;SDS011;16191;49.548;8.658;2023-05-20T01:42:12;3.88;;;2.45;;
29120;SDS011;16191;49.548;8.658;2023-05-20T01:44:40;8.65;;;2.85;;
29120;SDS011;16191;49.548;8.658;2023-05-20T01:47:07;9.27;;;2.40;;
29120;SDS011;16191;49.548;8.658;2023-05-20T01:49:34;4.20;;;2.30;;
29120;SDS011;16191;49.548;8.658;2023-05-20T01:52:01;7.03;;;2.63;;
29120;SDS011;16191;49.548;8.658;2023-05-20T01:54:28;7.68;;;2.28;;
29120;SDS011;16191;49.548;8.658;2023-05-20T01:56:54;3.55;;;2.30;;
29120;SDS011;16191;49.548;8.658;2023-05-20T01:59:21;3.85;;;2.20;;
29120;SDS011;16191;49.548;8.658;2023-05-20T02:01:49;5.53;;;2.25;;
29120;SDS011;16191;49.548;8.658;2023-05-20T02:04:16;6.70;;;2.38;;
29120;SDS011;16191;49.548;8.658;2023-05-20T02:06:44;5.68;;;2.40;;
29120;SDS011;16191;49.548;8.658;2023-05-20T02:09:11;7.88;;;2.38;;
29120;SDS011;16191;49.548;8.658;2023-05-20T02:11:38;6.70;;;2.35;;
29120;SDS011;16191;49.548;8.658;2023-05-20T02:14:05;12.63;;;2.58;;
29120;SDS011;16191;49.548;8.658;2023-05-20T02:16:31;6.10;;;2.85;;
29120;SDS011;16191;49.548;8.658;2023-05-20T02:18:58;6.95;;;2.35;;
29120;SDS011;16191;49.548;8.658;2023-05-20T02:21:25;5.10;;;1.95;;
29120;SDS011;16191;49.548;8.658;2023-05-20T02:23:52;4.00;;;2.40;;
29120;SDS011;16191;49.548;8.658;2023-05-20T02:26:19;6.30;;;2.90;;
29120;SDS011;16191;49.548;8.658;2023-05-20T02:28:46;4.55;;;2.40;;
29120;SDS011;16191;49.548;8.658;2023-05-20T02:31:16;4.28;;;2.17;;
29120;SDS011;16191;49.548;8.658;2023-05-20T02:33:43;4.80;;;2.50;;
29120;SDS011;16191;49.548;8.658;2023-05-20T02:36:11;6.00;;;3.03;;
29120;SDS011;16191;49.548;8.658;2023-05-20T02:38:37;7.88;;;2.90;;
29120;SDS011;16191;49.548;8.658;2023-05-20T02:41:04;6.13;;;2.47;;
29120;SDS011;16191;49.548;8.658;2023-05-20T02:43:31;4.75;;;2.58;;
29120;SDS011;16191;49.548;8.658;2023-05-20T02:45:59;4.85;;;2.88;;
29120;SDS011;16191;49.548;8.658;2023-05-20T02:48:26;7.10;;;2.92;;
29120;SDS011;16191;49.548;8.658;2023-05-20T02:50:53;7.10;;;2.88;;
29120;SDS011;16191;49.548;8.658;2023-05-20T02:53:19;5.50;;;2.78;;
29120;SDS011;16191;49.548;8.658;2023-05-20T02:55:46;4.85;;;2.55;;
29120;SDS011;16191;49.548;8.658;2023-05-20T02:58:13;5.75;;;2.63;;
29120;SDS011;16191;49.548;8.658;2023-05-20T03:00:40;5.80;;;2.88;;
29120;SDS011;16191;49.548;8.658;2023-05-20T03:03:07;6.80;;;2.97;;
29120;SDS011;16191;49.548;8.658;2023-05-20T03:05:35;3.33;;;2.35;;
29120;SDS011;16191;49.548;8.658;2023-05-20T03:08:06;9.13;;;3.13;;
29120;SDS011;16191;49.548;8.658;2023-05-20T03:10:35;5.43;;;2.80;;
29120;SDS011;16191;49.548;8.658;2023-05-20T03:13:05;3.53;;;2.63;;
29120;SDS011;16191;49.548;8.658;2023-05-20T03:15:36;6.50;;;2.58;;
29120;SDS011;16191;49.548;8.658;2023-05-20T03:18:04;5.00;;;2.72;;
29120;SDS011;16191;49.548;8.658;2023-05-20T03:20:33;3.80;;;2.50;;
29120;SDS011;16191;49.548;8.658;2023-05-20T03:23:02;4.67;;;3.00;;
29120;SDS011;16191;49.548;8.658;2023-05-20T03:25:29;4.10;;;2.38;;
29120;SDS011;16191;49.548;8.658;2023-05-20T03:27:57;8.40;;;2.85;;
29120;SDS011;16191;49.548;8.658;2023-05-20T03:30:28;8.07;;;3.08;;
29120;SDS011;16191;49.548;8.658;2023-05-20T03:35:25;3.50;;;2.13;;
29120;SDS011;16191;49.548;8.658;2023-05-20T03:37:53;4.55;;;2.45;;
29120;SDS011;16191;49.548;8.658;2023-05-20T03:40:22;3.55;;;2.38;;
29120;SDS011;16191;49.548;8.658;2023-05-20T03:42:48;6.63;;;2.80;;
29120;SDS011;16191;49.548;8.658;2023-05-20T03:45:19;8.38;;;2.95;;
29120;SDS011;16191;49.548;8.658;2023-05-20T03:48:01;3.63;;;2.90;;
29120;SDS011;16191;49.548;8.658;2023-05-20T03:50:31;5.13;;;2.77;;
29120;SDS011;16191;49.548;8.658;2023-05-20T03:52:59;5.63;;;2.70;;
29120;SDS011;16191;49.548;8.658;2023-05-20T03:55:27;6.13;;;2.90;;
29120;SDS011;16191;49.548;8.658;2023-05-20T03:57:54;5.72;;;2.50;;
29120;SDS011;16191;49.548;8.658;2023-05-20T04:00:20;4.40;;;2.90;;
29120;SDS011;16191;49.548;8.658;2023-05-20T04:02:48;7.70;;;2.72;;
29120;SDS011;16191;49.548;8.658;2023-05-20T04:05:17;5.60;;;2.70;;
29120;SDS011;16191;49.548;8.658;2023-05-20T04:07:44;3.97;;;2.75;;
29120;SDS011;16191;49.548;8.658;2023-05-20T04:10:12;5.50;;;3.30;;
29120;SDS011;16191;49.548;8.658;2023-05-20T04:12:38;5.35;;;2.67;;
29120;SDS011;16191;49.548;8.658;2023-05-20T04:15:05;9.20;;;2.83;;
29120;SDS011;16191;49.548;8.658;2023-05-20T04:17:41;5.50;;;2.88;;
29120;SDS011;16191;49.548;8.658;2023-05-20T04:20:09;7.38;;;3.08;;
29120;SDS011;16191;49.548;8.658;2023-05-20T04:22:36;6.05;;;2.95;;
29120;SDS011;16191;49.548;8.658;2023-05-20T04:25:05;4.47;;;2.72;;
29120;SDS011;16191;49.548;8.658;2023-05-20T04:27:32;4.95;;;3.00;;
29120;SDS011;16191;49.548;8.658;2023-05-20T04:29:59;6.70;;;3.70;;
29120;SDS011;16191;49.548;8.658;2023-05-20T04:32:30;5.15;;;2.80;;
29120;SDS011;16191;49.548;8.658;2023-05-20T04:34:59;6.57;;;2.78;;
29120;SDS011;16191;49.548;8.658;2023-05-20T04:37:30;4.72;;;3.30;;
29120;SDS011;16191;49.548;8.658;2023-05-20T04:39:57;6.13;;;2.78;;
29120;SDS011;16191;49.548;8.658;2023-05-20T04:42:23;8.65;;;2.80;;
29120;SDS011;16191;49.548;8.658;2023-05-20T04:44:51;4.65;;;2.97;;
29120;SDS011;16191;49.548;8.658;2023-05-20T04:47:19;7.93;;;2.75;;
29120;SDS011;16191;49.548;8.658;2023-05-20T04:49:45;6.28;;;3.25;;
29120;SDS011;16191;49.548;8.658;2023-05-20T04:52:12;6.57;;;2.85;;
29120;SDS011;16191;49.548;8.658;2023-05-20T04:54:39;6.28;;;3.50;;
29120;SDS011;16191;49.548;8.658;2023-05-20T04:57:05;5.13;;;3.30;;
29120;SDS011;16191;49.548;8.658;2023-05-20T04:59:32;5.85;;;2.85;;
29120;SDS011;16191;49.548;8.658;2023-05-20T05:01:59;6.55;;;2.95;;
29120;SDS011;16191;49.548;8.658;2023-05-20T05:04:26;8.02;;;3.33;;
29120;SDS011;16191;49.548;8.658;2023-05-20T05:06:52;6.32;;;2.95;;
29120;SDS011;16191;49.548;8.658;2023-05-20T05:09:19;5.20;;;3.20;;
29120;SDS011;16191;49.548;8.658;2023-05-20T05:11:46;4.07;;;3.03;;
29120;SDS011;16191;49.548;8.658;2023-05-20T05:14:12;6.72;;;2.83;;
29120;SDS011;16191;49.548;8.658;2023-05-20T05:16:39;6.80;;;3.10;;
29120;SDS011;16191;49.548;8.658;2023-05-20T05:19:07;5.28;;;3.30;;
29120;SDS011;16191;49.548;8.658;2023-05-20T05:21:37;5.07;;;3.25;;
29120;SDS011;16191;49.548;8.658;2023-05-20T05:24:03;5.68;;;3.70;;
29120;SDS011;16191;49.548;8.658;2023-05-20T05:26:30;7.85;;;3.60;;
29120;SDS011;16191;49.548;8.658;2023-05-20T05:28:57;8.88;;;3.65;;
29120;SDS011;16191;49.548;8.658;2023-05-20T05:31:23;7.95;;;4.05;;
29120;SDS011;16191;49.548;8.658;2023-05-20T05:33:50;7.68;;;3.78;;
29120;SDS011;16191;49.548;8.658;2023-05-20T05:36:16;5.05;;;3.47;;
29120;SDS011;16191;49.548;8.658;2023-05-20T05:38:43;5.60;;;3.45;;
29120;SDS011;16191;49.548;8.658;2023-05-20T05:41:10;6.25;;;3.40;;
29120;SDS011;16191;49.548;8.658;2023-05-20T05:43:37;4.78;;;3.38;;
29120;SDS011;16191;49.548;8.658;2023-05-20T05:46:05;6.93;;;3.83;;
29120;SDS011;16191;49.548;8.658;2023-05-20T05:48:32;7.45;;;3.67;;
29120;SDS011;16191;49.548;8.658;2023-05-20T05:50:58;5.28;;;3.40;;
29120;SDS011;16191;49.548;8.658;2023-05-20T05:53:25;5.50;;;3.55;;
29120;SDS011;16191;49.548;8.658;2023-05-20T05:55:52;4.15;;;3.30;;
29120;SDS011;16191;49.548;8.658;2023-05-20T05:58:19;6.15;;;3.60;;
29120;SDS011;16191;49.548;8.658;2023-05-20T06:00:46;4.78;;;3.35;;
29120;SDS011;16191;49.548;8.658;2023-05-20T06:03:12;5.72;;;3.10;;
29120;SDS011;16191;49.548;8.658;2023-05-20T06:05:39;6.88;;;3.60;;
29120;SDS011;16191;49.548;8.658;2023-05-20T06:08:06;6.32;;;3.58;;
29120;SDS011;16191;49.548;8.658;2023-05-20T06:10:34;4.20;;;3.40;;
29120;SDS011;16191;49.548;8.658;2023-05-20T06:13:01;6.00;;;4.25;;
29120;SDS011;16191;49.548;8.658;2023-05-20T06:15:27;5.18;;;3.60;;
29120;SDS011;16191;49.548;8.658;2023-05-20T06:17:54;5.68;;;3.95;;
29120;SDS011;16191;49.548;8.658;2023-05-20T06:20:21;7.68;;;3.65;;
29120;SDS011;16191;49.548;8.658;2023-05-20T06:22:48;6.75;;;3.65;;
29120;SDS011;16191;49.548;8.658;2023-05-20T06:25:15;10.80;;;3.97;;
29120;SDS011;16191;49.548;8.658;2023-05-20T06:27:43;7.65;;;4.13;;
29120;SDS011;16191;49.548;8.658;2023-05-20T06:30:12;9.57;;;4.13;;
29120;SDS011;16191;49.548;8.658;2023-05-20T06:32:38;7.10;;;3.38;;
29120;SDS011;16191;49.548;8.658;2023-05-20T06:35:06;5.43;;;3.85;;
29120;SDS011;16191;49.548;8.658;2023-05-20T06:37:33;5.15;;;3.53;;
29120;SDS011;16191;49.548;8.658;2023-05-20T06:40:00;8.32;;;3.88;;
29120;SDS011;16191;49.548;8.658;2023-05-20T06:42:27;6.22;;;3.88;;
29120;SDS011;16191;49.548;8.658;2023-05-20T06:45:02;9.68;;;4.05;;
29120;SDS011;16191;49.548;8.658;2023-05-20T06:47:39;6.30;;;3.80;;
29120;SDS011;16191;49.548;8.658;2023-05-20T06:50:07;6.50;;;3.47;;
29120;SDS011;16191;49.548;8.658;2023-05-20T06:52:34;8.45;;;3.22;;
29120;SDS011;16191;49.548;8.658;2023-05-20T06:55:01;5.97;;;3.70;;
29120;SDS011;16191;49.548;8.658;2023-05-20T06:57:29;5.95;;;3.60;;
29120;SDS011;16191;49.548;8.658;2023-05-20T06:59:55;4.93;;;3.40;;
29120;SDS011;16191;49.548;8.658;2023-05-20T07:02:22;6.22;;;4.30;;
29120;SDS011;16191;49.548;8.658;2023-05-20T07:04:48;5.57;;;3.38;;
29120;SDS011;16191;49.548;8.658;2023-05-20T07:07:15;5.32;;;3.85;;
29120;SDS011;16191;49.548;8.658;2023-05-20T07:09:43;6.57;;;3.50;;
29120;SDS011;16191;49.548;8.658;2023-05-20T07:12:10;5.43;;;4.07;;
29120;SDS011;16191;49.548;8.658;2023-05-20T07:14:37;7.63;;;4.28;;
29120;SDS011;16191;49.548;8.658;2023-05-20T07:17:04;5.55;;;3.30;;
29120;SDS011;16191;49.548;8.658;2023-05-20T07:19:31;8.93;;;4.15;;
29120;SDS011;16191;49.548;8.658;2023-05-20T07:21:59;4.50;;;3.20;;
29120;SDS011;16191;49.548;8.658;2023-05-20T07:24:49;5.90;;;3.95;;
29120;SDS011;16191;49.548;8.658;2023-05-20T07:27:15;6.07;;;3.35;;
29120;SDS011;16191;49.548;8.658;2023-05-20T07:29:42;6.05;;;3.75;;
29120;SDS011;16191;49.548;8.658;2023-05-20T07:32:10;6.18;;;3.78;;
29120;SDS011;16191;49.548;8.658;2023-05-20T07:34:37;4.20;;;3.15;;
29120;SDS011;16191;49.548;8.658;2023-05-20T07:37:04;7.03;;;3.80;;
29120;SDS011;16191;49.548;8.658;2023-05-20T07:39:31;8.40;;;3.85;;
29120;SDS011;16191;49.548;8.658;2023-05-20T07:41:57;8.50;;;3.42;;
29120;SDS011;16191;49.548;8.658;2023-05-20T07:44:24;5.40;;;3.95;;
29120;SDS011;16191;49.548;8.658;2023-05-20T07:46:52;9.43;;;4.35;;
29120;SDS011;16191;49.548;8.658;2023-05-20T07:49:19;6.68;;;3.72;;
29120;SDS011;16191;49.548;8.658;2023-05-20T07:51:46;8.05;;;3.40;;
29120;SDS011;16191;49.548;8.658;2023-05-20T07:54:14;4.18;;;3.08;;
29120;SDS011;16191;49.548;8.658;2023-05-20T07:59:10;9.98;;;3.88;;
29120;SDS011;16191;49.548;8.658;2023-05-20T08:01:43;6.63;;;3.53;;
29120;SDS011;16191;49.548;8.658;2023-05-20T08:04:12;4.45;;;3.25;;
29120;SDS011;16191;49.548;8.658;2023-05-20T08:06:39;6.70;;;3.72;;
29120;SDS011;16191;49.548;8.658;2023-05-20T08:09:10;6.32;;;3.90;;
29120;SDS011;16191;49.548;8.658;2023-05-20T08:11:40;5.10;;;4.00;;
29120;SDS011;16191;49.548;8.658;2023-05-20T08:14:07;7.55;;;3.60;;
29120;SDS011;16191;49.548;8.658;2023-05-20T08:16:38;10.05;;;3.97;;
29120;SDS011;16191;49.548;8.658;2023-05-20T08:19:05;8.75;;;4.03;;
29120;SDS011;16191;49.548;8.658;2023-05-20T08:21:31;8.07;;;4.05;;
29120;SDS011;16191;49.548;8.658;2023-05-20T08:23:58;7.70;;;4.10;;
29120;SDS011;16191;49.548;8.658;2023-05-20T08:26:26;6.97;;;3.92;;
29120;SDS011;16191;49.548;8.658;2023-05-20T08:28:53;9.70;;;3.95;;
29120;SDS011;16191;49.548;8.658;2023-05-20T08:31:21;5.30;;;3.78;;
29120;SDS011;16191;49.548;8.658;2023-05-20T08:33:48;5.78;;;3.88;;
29120;SDS011;16191;49.548;8.658;2023-05-20T08:36:16;6.93;;;3.50;;
29120;SDS011;16191;49.548;8.658;2023-05-20T08:38:44;7.07;;;3.80;;
29120;SDS011;16191;49.548;8.658;2023-05-20T08:41:11;6.32;;;3.67;;
29120;SDS011;16191;49.548;8.658;2023-05-20T08:43:40;5.97;;;3.63;;
29120;SDS011;16191;49.548;8.658;2023-05-20T08:46:08;4.70;;;3.65;;
29120;SDS011;16191;49.548;8.658;2023-05-20T08:48:35;6.95;;;4.25;;
29120;SDS011;16191;49.548;8.658;2023-05-20T08:51:02;5.18;;;3.97;;
29120;SDS011;16191;49.548;8.658;2023-05-20T08:53:29;6.63;;;3.83;;
29120;SDS011;16191;49.548;8.658;2023-05-20T08:55:58;4.57;;;3.40;;
29120;SDS011;16191;49.548;8.658;2023-05-20T08:58:28;3.70;;;2.97;;
29120;SDS011;16191;49.548;8.658;2023-05-20T09:00:55;4.32;;;3.45;;
29120;SDS011;16191;49.548;8.658;2023-05-20T09:03:24;3.75;;;3.28;;
29120;SDS011;16191;49.548;8.658;2023-05-20T09:06:02;5.30;;;3.88;;
29120;SDS011;16191;49.548;8.658;2023-05-20T09:08:33;4.65;;;3.80;;
29120;SDS011;16191;49.548;8.658;2023-05-20T09:11:00;5.47;;;3.33;;
29120;SDS011;16191;49.548;8.658;2023-05-20T09:13:26;4.65;;;3.45;;
29120;SDS011;16191;49.548;8.658;2023-05-20T09:15:56;5.15;;;3.80;;
29120;SDS011;16191;49.548;8.658;2023-05-20T09:18:24;8.13;;;3.95;;
29120;SDS011;16191;49.548;8.658;2023-05-20T09:20:51;8.38;;;4.03;;
29120;SDS011;16191;49.548;8.658;2023-05-20T09:23:18;5.57;;;3.75;;
29120;SDS011;16191;49.548;8.658;2023-05-20T09:25:48;10.70;;;4.35;;
29120;SDS011;16191;49.548;8.658;2023-05-20T09:28:21;14.18;;;5.57;;
29120;SDS011;16191;49.548;8.658;2023-05-20T09:30:50;5.43;;;3.78;;
29120;SDS011;16191;49.548;8.658;2023-05-20T09:33:17;8.25;;;3.25;;
29120;SDS011;16191;49.548;8.658;2023-05-20T09:35:43;13.15;;;3.40;;
29120;SDS011;16191;49.548;8.658;2023-05-20T09:38:10;6.57;;;3.10;;
29120;SDS011;16191;49.548;8.658;2023-05-20T09:40:37;5.65;;;3.67;;
29120;SDS011;16191;49.548;8.658;2023-05-20T09:43:05;7.90;;;4.18;;
29120;SDS011;16191;49.548;8.658;2023-05-20T09:45:33;5.93;;;3.60;;
29120;SDS011;16191;49.548;8.658;2023-05-20T09:48:01;5.18;;;3.65;;
29120;SDS011;16191;49.548;8.658;2023-05-20T09:50:28;8.30;;;3.55;;
29120;SDS011;16191;49.548;8.658;2023-05-20T09:52:56;4.55;;;3.33;;
29120;SDS011;16191;49.548;8.658;2023-05-20T09:55:27;3.90;;;3.50;;
29120;SDS011;16191;49.548;8.658;2023-05-20T09:57:55;8.75;;;3.70;;
29120;SDS011;16191;49.548;8.658;2023-05-20T10:00:27;4.65;;;3.67;;
29120;SDS011;16191;49.548;8.658;2023-05-20T10:02:54;8.25;;;3.85;;
29120;SDS011;16191;49.548;8.658;2023-05-20T10:05:55;8.15;;;3.58;;
29120;SDS011;16191;49.548;8.658;2023-05-20T10:08:57;5.68;;;3.80;;
29120;SDS011;16191;49.548;8.658;2023-05-20T10:19:40;5.00;;;3.67;;
29120;SDS011;16191;49.548;8.658;2023-05-20T10:22:07;5.20;;;3.40;;
29120;SDS011;16191;49.548;8.658;2023-05-20T10:24:36;6.78;;;4.13;;
29120;SDS011;16191;49.548;8.658;2023-05-20T10:27:12;6.25;;;3.10;;
29120;SDS011;16191;49.548;8.658;2023-05-20T10:29:41;4.80;;;3.35;;
29120;SDS011;16191;49.548;8.658;2023-05-20T10:32:09;5.70;;;3.58;;
29120;SDS011;16191;49.548;8.658;2023-05-20T10:34:45;6.80;;;3.90;;
29120;SDS011;16191;49.548;8.658;2023-05-20T10:37:24;5.93;;;3.67;;
29120;SDS011;16191;49.548;8.658;2023-05-20T10:40:01;6.05;;;3.83;;
29120;SDS011;16191;49.548;8.658;2023-05-20T10:42:31;8.00;;;4.40;;
29120;SDS011;16191;49.548;8.658;2023-05-20T10:44:58;5.45;;;3.75;;
29120;SDS011;16191;49.548;8.658;2023-05-20T10:47:24;8.45;;;3.80;;
29120;SDS011;16191;49.548;8.658;2023-05-20T10:49:52;8.98;;;3.45;;
29120;SDS011;16191;49.548;8.658;2023-05-20T10:52:18;6.32;;;3.25;;
29120;SDS011;16191;49.548;8.658;2023-05-20T10:54:46;5.25;;;3.40;;
29120;SDS011;16191;49.548;8.658;2023-05-20T10:57:20;6.63;;;3.58;;
29120;SDS011;16191;49.548;8.658;2023-05-20T10:59:48;6.25;;;3.58;;
29120;SDS011;16191;49.548;8.658;2023-05-20T11:02:15;6.85;;;4.13;;
29120;SDS011;16191;49.548;8.658;2023-05-20T11:04:43;6.50;;;3.75;;
29120;SDS011;16191;49.548;8.658;2023-05-20T11:07:10;8.40;;;3.95;;
29120;SDS011;16191;49.548;8.658;2023-05-20T11:09:37;6.55;;;3.95;;
29120;SDS011;16191;49.548;8.658;2023-05-20T11:12:03;7.32;;;3.88;;
29120;SDS011;16191;49.548;8.658;2023-05-20T11:14:31;5.20;;;3.80;;
29120;SDS011;16191;49.548;8.658;2023-05-20T11:16:58;7.20;;;3.28;;
29120;SDS011;16191;49.548;8.658;2023-05-20T11:19:26;5.60;;;3.75;;
29120;SDS011;16191;49.548;8.658;2023-05-20T11:21:53;3.95;;;3.08;;
29120;SDS011;16191;49.548;8.658;2023-05-20T11:24:23;4.45;;;3.58;;
29120;SDS011;16191;49.548;8.658;2023-05-20T11:26:52;3.92;;;3.42;;
29120;SDS011;16191;49.548;8.658;2023-05-20T11:29:20;6.60;;;4.13;;
29120;SDS011;16191;49.548;8.658;2023-05-20T11:31:48;5.35;;;3.90;;
29120;SDS011;16191;49.548;8.658;2023-05-20T11:34:19;8.38;;;4.07;;
29120;SDS011;16191;49.548;8.658;2023-05-20T11:36:57;4.97;;;3.67;;
29120;SDS011;16191;49.548;8.658;2023-05-20T11:39:24;7.07;;;4.03;;
29120;SDS011;16191;49.548;8.658;2023-05-20T11:41:54;7.20;;;4.10;;
29120;SDS011;16191;49.548;8.658;2023-05-20T11:44:23;6.82;;;3.58;;
29120;SDS011;16191;49.548;8.658;2023-05-20T11:46:50;5.38;;;3.67;;
29120;SDS011;16191;49.548;8.658;2023-05-20T11:49:16;4.38;;;3.20;;
29120;SDS011;16191;49.548;8.658;2023-05-20T11:51:43;6.22;;;3.75;;
29120;SDS011;16191;49.548;8.658;2023-05-20T11:54:10;8.27;;;3.85;;
29120;SDS011;16191;49.548;8.658;2023-05-20T11:56:37;5.30;;;3.53;;
29120;SDS011;16191;49.548;8.658;2023-05-20T11:59:07;5.68;;;4.20;;
29120;SDS011;16191;49.548;8.658;2023-05-20T12:01:36;5.43;;;4.00;;
29120;SDS011;16191;49.548;8.658;2023-05-20T12:04:06;4.95;;;4.30;;
29120;SDS011;16191;49.548;8.658;2023-05-20T12:06:34;6.70;;;4.78;;
29120;SDS011;16191;49.548;8.658;2023-05-20T12:09:02;5.25;;;3.83;;
29120;SDS011;16191;49.548;8.658;2023-05-20T12:11:32;4.57;;;3.80;;
29120;SDS011;16191;49.548;8.658;2023-05-20T12:14:01;6.78;;;3.35;;
29120;SDS011;16191;49.548;8.658;2023-05-20T12:18:58;7.18;;;4.13;;
29120;SDS011;16191;49.548;8.658;2023-05-20T12:21:27;7.15;;;3.97;;
29120;SDS011;16191;49.548;8.658;2023-05-20T12:23:54;7.97;;;4.60;;
29120;SDS011;16191;49.548;8.658;2023-05-20T12:26:24;4.20;;;3.53;;
29120;SDS011;16191;49.548;8.658;2023-05-20T12:28:52;22.95;;;12.45;;
29120;SDS011;16191;49.548;8.658;2023-05-20T12:31:19;6.43;;;4.68;;
29120;SDS011;16191;49.548;8.658;2023-05-20T12:33:46;7.70;;;4.28;;
29120;SDS011;16191;49.548;8.658;2023-05-20T12:36:13;4.78;;;4.10;;
29120;SDS011;16191;49.548;8.658;2023-05-20T12:38:40;8.73;;;4.60;;
29120;SDS011;16191;49.548;8.658;2023-05-20T12:41:07;5.88;;;5.00;;
29120;SDS011;16191;49.548;8.658;2023-05-20T12:43:34;4.90;;;4.22;;
29120;SDS011;16191;49.548;8.658;2023-05-20T12:46:02;7.65;;;4.65;;
29120;SDS011;16191;49.548;8.658;2023-05-20T12:48:29;4.65;;;4.22;;
29120;SDS011;16191;49.548;8.658;2023-05-20T12:50:56;8.80;;;4.40;;
29120;SDS011;16191;49.548;8.658;2023-05-20T12:53:22;5.72;;;4.13;;
29120;SDS011;16191;49.548;8.658;2023-05-20T12:55:49;9.43;;;4.60;;
29120;SDS011;16191;49.548;8.658;2023-05-20T12:58:15;6.28;;;3.80;;
29120;SDS011;16191;49.548;8.658;2023-05-20T13:00:42;6.53;;;4.20;;
29120;SDS011;16191;49.548;8.658;2023-05-20T13:03:09;4.05;;;3.55;;
29120;SDS011;16191;49.548;8.658;2023-05-20T13:05:36;5.15;;;4.15;;
29120;SDS011;16191;49.548;8.658;2023-05-20T13:08:03;5.97;;;4.35;;
29120;SDS011;16191;49.548;8.658;2023-05-20T13:10:31;7.40;;;4.60;;
29120;SDS011;16191;49.548;8.658;2023-05-20T13:12:58;6.32;;;4.03;;
29120;SDS011;16191;49.548;8.658;2023-05-20T13:15:25;7.35;;;4.05;;
29120;SDS011;16191;49.548;8.658;2023-05-20T13:17:52;5.85;;;4.40;;
29120;SDS011;16191;49.548;8.658;2023-05-20T13:20:19;4.13;;;3.42;;
29120;SDS011;16191;49.548;8.658;2023-05-20T13:22:46;5.53;;;3.92;;
29120;SDS011;16191;49.548;8.658;2023-05-20T13:25:15;5.93;;;3.45;;
29120;SDS011;16191;49.548;8.658;2023-05-20T13:27:42;6.95;;;4.05;;
29120;SDS011;16191;49.548;8.658;2023-05-20T13:30:09;4.45;;;3.42;;
29120;SDS011;16191;49.548;8.658;2023-05-20T13:32:36;5.75;;;4.10;;
29120;SDS011;16191;49.548;8.658;2023-05-20T13:35:02;8.43;;;3.97;;
29120;SDS011;16191;49.548;8.658;2023-05-20T13:37:29;4.22;;;3.83;;
29120;SDS011;16191;49.548;8.658;2023-05-20T13:39:56;4.60;;;3.40;;
29120;SDS011;16191;49.548;8.658;2023-05-20T13:42:25;6.20;;;3.88;;
29120;SDS011;16191;49.548;8.658;2023-05-20T13:44:52;6.15;;;3.75;;
29120;SDS011;16191;49.548;8.658;2023-05-20T13:47:18;7.38;;;3.47;;
29120;SDS011;16191;49.548;8.658;2023-05-20T13:49:45;6.00;;;4.28;;
29120;SDS011;16191;49.548;8.658;2023-05-20T13:52:11;9.10;;;3.97;;
29120;SDS011;16191;49.548;8.658;2023-05-20T13:54:38;6.10;;;4.15;;
29120;SDS011;16191;49.548;8.658;2023-05-20T13:57:05;4.75;;;4.20;;
29120;SDS011;16191;49.548;8.658;2023-05-20T13:59:33;7.53;;;4.38;;
29120;SDS011;16191;49.548;8.658;2023-05-20T14:02:00;6.13;;;3.95;;
29120;SDS011;16191;49.548;8.658;2023-05-20T14:04:27;7.07;;;3.75;;
29120;SDS011;16191;49.548;8.658;2023-05-20T14:06:56;5.28;;;3.85;;
29120;SDS011;16191;49.548;8.658;2023-05-20T14:09:24;7.93;;;3.83;;
29120;SDS011;16191;49.548;8.658;2023-05-20T14:11:50;5.47;;;3.90;;
29120;SDS011;16191;49.548;8.658;2023-05-20T14:14:17;4.47;;;3.55;;
29120;SDS011;16191;49.548;8.658;2023-05-20T14:16:43;6.30;;;4.10;;
29120;SDS011;16191;49.548;8.658;2023-05-20T14:19:10;6.00;;;4.00;;
29120;SDS011;16191;49.548;8.658;2023-05-20T14:21:36;8.18;;;3.75;;
29120;SDS011;16191;49.548;8.658;2023-05-20T14:24:03;3.78;;;3.45;;
29120;SDS011;16191;49.548;8.658;2023-05-20T14:26:31;5.43;;;3.67;;
29120;SDS011;16191;49.548;8.658;2023-05-20T14:28:58;5.30;;;4.00;;
29120;SDS011;16191;49.548;8.658;2023-05-20T14:31:25;6.38;;;3.70;;
29120;SDS011;16191;49.548;8.658;2023-05-20T14:33:52;4.95;;;3.70;;
29120;SDS011;16191;49.548;8.658;2023-05-20T14:36:18;6.00;;;3.95;;
29120;SDS011;16191;49.548;8.658;2023-05-20T14:38:45;4.55;;;3.95;;
29120;SDS011;16191;49.548;8.658;2023-05-20T14:41:14;8.80;;;4.15;;
29120;SDS011;16191;49.548;8.658;2023-05-20T14:43:41;5.28;;;3.72;;
29120;SDS011;16191;49.548;8.658;2023-05-20T14:46:07;7.35;;;3.92;;
29120;SDS011;16191;49.548;8.658;2023-05-20T14:48:34;7.57;;;3.67;;
29120;SDS011;16191;49.548;8.658;2023-05-20T14:51:00;3.78;;;3.15;;
29120;SDS011;16191;49.548;8.658;2023-05-20T14:53:27;4.75;;;3.70;;
29120;SDS011;16191;49.548;8.658;2023-05-20T14:55:54;5.05;;;4.15;;
29120;SDS011;16191;49.548;8.658;2023-05-20T14:58:20;4.13;;;3.72;;
29120;SDS011;16191;49.548;8.658;2023-05-20T15:00:47;5.25;;;3.67;;
29120;SDS011;16191;49.548;8.658;2023-05-20T15:03:13;5.40;;;3.95;;
29120;SDS011;16191;49.548;8.658;2023-05-20T15:05:41;6.78;;;4.45;;
29120;SDS011;16191;49.548;8.658;2023-05-20T15:08:07;11.93;;;4.60;;
29120;SDS011;16191;49.548;8.658;2023-05-20T15:10:34;7.60;;;4.15;;